Ana Sayfa
METAR-TAF:

METAR-TAF

Havaalanları :

Sandakan, Malezya

Enlem: 05-54N, Boylam: 118-04E, yükseklik: 12 m

Güncel hava durumu gözlemi

Rapor saat 14:00 UTC de 1 saat ve 54 dakika önce yapıldı.
Rüzgar değişken yönden 3 kt
Sıcaklık 27°C
Nem 89%
Basınç 1009 hPa
Görüş mesafesi 10 km veya daha fazla
1600 ft yükseklikte az bulutlu
30000 ft yükseklikte parçalı çok bulutlu

METAR: WBKS 141400Z VRB03KT 9999 FEW016 BKN300 27/25 Q1009

Saat: 23:54 (15:54 UTC)

Tahmin

Rapor saat 11:00 UTC de 4 saat ve 54 dakika önce yapıldı.
Ayın 14'si saat 12 UTC'den ayın 15'si saat 12 UTC'ye kadar geçerli Tahmin
Rüzgar batıdan 5 kt
Görüş mesafesi 10 km veya daha fazla
1600 ft yükseklikte az bulutlu

TAF: WBKS 141100Z 1412/1512 26005KT 9999 FEW016

4.000'den fazla havaalanı için hava durumu gözlemleri ve tahminleri (METAR ve TAF raporları).

Kullanılabilir istasyonlar harita üzerinde sarı ve kırmızı noktalarla gösterilir.

İstasyonun adını görmek için fareyi noktanın üzerinde gezdirin.

Sonrasında hava gözlem ve tahminlerini görmek için tıklayın.

Haritayı değiştirmek için: yaklaştırmak için siyah artı işaretli yeşil düğmeye ve uzaklaştırmak için de eksi işaretli düğmeye hızla tıklayın; bitişik haritalar için yeşil okları kullanın.


METAR-TAF: